createdAt,value
2022-08-05T00:01:36.176Z,24.91
2022-08-05T00:04:16.969Z,24.93
2022-08-05T00:06:45.473Z,24.81
2022-08-05T00:09:19.427Z,24.72
2022-08-05T00:11:48.680Z,24.68
2022-08-05T00:14:27.587Z,24.64
2022-08-05T00:16:57.220Z,24.81
2022-08-05T00:19:33.445Z,24.91
2022-08-05T00:22:11.133Z,24.87
2022-08-05T00:24:42.479Z,24.87
2022-08-05T00:27:14.173Z,24.86
2022-08-05T00:29:44.896Z,24.92
2022-08-05T00:32:15.082Z,24.86
2022-08-05T00:35:03.928Z,24.93
2022-08-05T00:37:51.395Z,24.96
2022-08-05T00:40:27.550Z,25.00
2022-08-05T00:42:58.689Z,25.04
2022-08-05T00:45:38.065Z,25.11
2022-08-05T00:48:08.127Z,25.21
2022-08-05T00:50:37.093Z,25.24
2022-08-05T00:53:09.811Z,25.18
2022-08-05T00:55:53.930Z,24.70
2022-08-05T00:58:21.647Z,24.10
2022-08-05T01:00:56.323Z,23.54
2022-08-05T01:03:24.222Z,23.01
2022-08-05T01:05:58.879Z,22.97
2022-08-05T01:08:30.393Z,23.06
2022-08-05T01:11:22.268Z,22.93
2022-08-05T01:14:03.931Z,23.28
2022-08-05T01:16:50.050Z,23.51
2022-08-05T01:19:56.334Z,23.72
2022-08-05T01:22:36.684Z,23.73
2022-08-05T01:25:40.811Z,23.53
2022-08-05T01:28:24.281Z,23.86
2022-08-05T01:30:55.350Z,24.23
2022-08-05T01:33:35.473Z,24.06
2022-08-05T01:36:12.902Z,23.95
2022-08-05T01:38:48.464Z,24.09
2022-08-05T01:41:22.041Z,24.08
2022-08-05T01:43:52.469Z,23.84
2022-08-05T01:46:42.529Z,23.67
2022-08-05T01:49:23.182Z,23.32
2022-08-05T01:51:56.510Z,23.39
2022-08-05T01:54:30.552Z,23.59
2022-08-05T01:58:10.721Z,23.21
2022-08-05T01:59:50.287Z,22.86
2022-08-05T02:02:26.295Z,22.91
2022-08-05T02:04:59.479Z,22.85
2022-08-05T02:07:30.461Z,22.74
2022-08-05T02:09:58.746Z,22.72
2022-08-05T02:12:35.546Z,22.81
2022-08-05T02:15:12.356Z,22.97
2022-08-05T02:18:32.402Z,22.92
2022-08-05T02:20:41.484Z,22.81
2022-08-05T02:23:12.837Z,22.49
2022-08-05T02:25:49.104Z,22.64
2022-08-05T02:28:29.168Z,22.65
2022-08-05T02:31:07.534Z,22.62
2022-08-05T02:33:43.227Z,22.59
2022-08-05T02:36:15.566Z,22.70
2022-08-05T02:38:53.243Z,22.76
2022-08-05T02:41:23.355Z,22.30
2022-08-05T02:44:06.111Z,22.31
2022-08-05T02:46:53.114Z,22.02
2022-08-05T02:49:36.893Z,21.67
2022-08-05T02:52:11.621Z,21.62
2022-08-05T02:54:52.064Z,21.47
2022-08-05T02:58:09.708Z,21.46
2022-08-05T03:00:10.777Z,21.35
2022-08-05T03:02:42.788Z,21.23
2022-08-05T03:05:13.492Z,21.31
2022-08-05T03:08:01.603Z,21.37
2022-08-05T03:10:30.808Z,21.26
2022-08-05T03:15:28.368Z,21.28
2022-08-05T03:17:58.094Z,21.29
2022-08-05T03:20:27.316Z,21.34
2022-08-05T03:22:57.494Z,21.52
2022-08-05T03:26:03.569Z,21.32
2022-08-05T03:28:18.770Z,21.23
2022-08-05T03:30:49.609Z,21.26
2022-08-05T03:33:20.314Z,21.14
2022-08-05T03:35:50.025Z,21.29
2022-08-05T03:38:32.701Z,21.00
2022-08-05T03:41:08.417Z,21.15
2022-08-05T03:44:08.731Z,21.23
2022-08-05T03:46:29.827Z,21.20
2022-08-05T03:48:59.348Z,21.07
2022-08-05T03:52:38.779Z,21.10
2022-08-05T03:56:03.934Z,20.99
2022-08-05T03:57:41.129Z,20.95
2022-08-05T04:00:12.729Z,20.97
2022-08-05T04:02:58.172Z,20.97
2022-08-05T04:05:33.704Z,20.97
2022-08-05T04:08:03.759Z,21.09
2022-08-05T04:10:38.142Z,21.12
2022-08-05T04:13:07.474Z,20.97
2022-08-05T04:15:36.517Z,21.01
2022-08-05T04:18:06.729Z,20.99
2022-08-05T04:20:37.039Z,20.93
2022-08-05T04:23:05.175Z,20.96
2022-08-05T04:25:57.403Z,20.88
2022-08-05T04:28:21.142Z,20.88
2022-08-05T04:31:01.124Z,20.93
2022-08-05T04:33:54.923Z,20.93
2022-08-05T04:36:44.652Z,21.03
2022-08-05T04:39:07.483Z,21.03
2022-08-05T04:41:37.794Z,20.99
2022-08-05T04:44:09.605Z,21.15
2022-08-05T04:46:38.170Z,21.19
2022-08-05T04:49:05.998Z,21.31
2022-08-05T04:51:41.616Z,21.51
2022-08-05T04:54:10.441Z,21.52
2022-08-05T04:56:40.174Z,21.57
2022-08-05T04:59:22.160Z,21.66
2022-08-05T05:02:07.207Z,21.71
2022-08-05T05:04:38.245Z,21.76
2022-08-05T05:07:09.516Z,21.93
2022-08-05T05:09:38.004Z,21.96
2022-08-05T05:12:06.505Z,22.02
2022-08-05T05:14:36.227Z,22.08
2022-08-05T05:17:07.564Z,22.21
2022-08-05T05:19:44.372Z,22.35
2022-08-05T05:22:24.320Z,22.35
2022-08-05T05:24:57.653Z,22.49
2022-08-05T05:27:44.994Z,22.57
2022-08-05T05:30:29.624Z,22.68
2022-08-05T05:33:00.933Z,22.67
2022-08-05T05:35:31.638Z,22.89
2022-08-05T05:38:09.448Z,23.25
2022-08-05T05:40:49.588Z,23.42
2022-08-05T05:43:27.736Z,23.58
2022-08-05T05:46:13.770Z,23.65
2022-08-05T05:48:46.225Z,23.62
2022-08-05T05:51:20.630Z,23.72
2022-08-05T05:53:57.883Z,23.97
2022-08-05T05:56:32.507Z,24.24
2022-08-05T05:59:03.623Z,24.38
2022-08-05T06:01:37.980Z,24.49
2022-08-05T06:04:07.958Z,24.81
2022-08-05T06:06:35.881Z,24.70
2022-08-05T06:09:07.606Z,24.69
2022-08-05T06:11:35.529Z,24.62
2022-08-05T06:14:07.365Z,24.41
2022-08-05T06:16:37.164Z,24.56
2022-08-05T06:19:07.583Z,24.73
2022-08-05T06:21:38.724Z,24.91
2022-08-05T06:24:12.819Z,25.28
2022-08-05T06:26:51.714Z,25.02
2022-08-05T06:29:43.225Z,25.05
2022-08-05T06:32:21.005Z,25.02
2022-08-05T06:37:55.666Z,24.96
2022-08-05T06:40:13.724Z,24.92
2022-08-05T06:42:41.739Z,25.01
2022-08-05T06:45:10.268Z,25.11
2022-08-05T06:48:37.162Z,25.00
2022-08-05T06:50:37.156Z,25.03
2022-08-05T06:53:11.580Z,25.45
2022-08-05T06:55:41.923Z,25.37
2022-08-05T06:58:29.261Z,25.45
2022-08-05T07:00:59.413Z,25.87
2022-08-05T07:03:32.490Z,26.67
2022-08-05T07:06:05.649Z,27.09
2022-08-05T07:08:42.038Z,26.90
2022-08-05T07:11:15.301Z,26.99
2022-08-05T07:14:01.267Z,26.39
2022-08-05T07:18:02.206Z,26.23
2022-08-05T07:22:28.592Z,26.18
2022-08-05T07:24:59.082Z,26.39
2022-08-05T07:27:58.585Z,26.27
2022-08-05T07:30:24.592Z,26.41
2022-08-05T07:32:58.254Z,26.10
2022-08-05T07:36:02.888Z,26.52
2022-08-05T07:38:32.835Z,26.70
2022-08-05T07:41:16.841Z,27.23
2022-08-05T07:43:51.571Z,28.12
2022-08-05T07:46:25.093Z,28.34
2022-08-05T07:49:02.311Z,28.81
2022-08-05T07:51:37.295Z,28.91
2022-08-05T07:54:09.975Z,28.86
2022-08-05T07:57:02.875Z,28.49
2022-08-05T07:59:38.082Z,28.29
2022-08-05T08:02:15.306Z,27.96
2022-08-05T08:04:44.774Z,29.13
2022-08-05T08:07:13.195Z,29.81
2022-08-05T08:09:40.932Z,29.71
2022-08-05T08:12:30.578Z,29.96
2022-08-05T08:15:02.427Z,29.76
2022-08-05T08:17:30.963Z,29.35
2022-08-05T08:20:22.572Z,29.22
2022-08-05T08:22:52.078Z,29.27
2022-08-05T08:25:26.398Z,28.91
2022-08-05T08:28:03.827Z,29.23
2022-08-05T08:30:40.828Z,30.17
2022-08-05T08:33:16.027Z,30.98
2022-08-05T08:35:53.913Z,31.46
2022-08-05T08:38:36.044Z,32.38
2022-08-05T08:41:08.147Z,32.51
2022-08-05T08:45:20.172Z,32.95
2022-08-05T08:46:29.006Z,33.74
2022-08-05T08:49:06.429Z,33.14
2022-08-05T08:52:03.337Z,33.22
2022-08-05T08:54:36.514Z,33.32
2022-08-05T08:57:06.501Z,33.38
2022-08-05T08:59:41.936Z,32.90
2022-08-05T09:02:18.991Z,33.06
2022-08-05T09:05:16.283Z,32.84
2022-08-05T09:07:39.842Z,32.84
2022-08-05T09:10:27.685Z,32.58
2022-08-05T09:13:04.511Z,33.13
2022-08-05T09:15:36.985Z,33.88
2022-08-05T09:18:08.801Z,34.23
2022-08-05T09:20:38.283Z,34.00
2022-08-05T09:23:19.730Z,33.44
2022-08-05T09:25:59.920Z,33.17
2022-08-05T09:28:31.525Z,32.53
2022-08-05T09:31:18.258Z,33.01
2022-08-05T09:33:56.279Z,33.07
2022-08-05T09:36:27.796Z,33.35
2022-08-05T09:39:03.053Z,34.05
2022-08-05T09:41:32.777Z,34.26
2022-08-05T09:44:06.202Z,34.25
2022-08-05T09:46:35.512Z,34.41
2022-08-05T09:49:19.001Z,34.25
2022-08-05T09:51:49.533Z,33.62
2022-08-05T09:54:21.390Z,34.50
2022-08-05T09:57:01.283Z,34.45
2022-08-05T09:59:35.146Z,34.13
2022-08-05T10:02:05.909Z,34.25
2022-08-05T10:04:40.950Z,32.88
2022-08-05T10:07:20.281Z,33.02
2022-08-05T10:10:14.379Z,32.34
2022-08-05T10:12:49.760Z,31.42
2022-08-05T10:15:25.829Z,32.70
2022-08-05T10:18:07.256Z,33.26
2022-08-05T10:20:40.056Z,34.18
2022-08-05T10:23:22.183Z,34.47
2022-08-05T10:25:56.954Z,34.93
2022-08-05T10:28:30.328Z,35.56
2022-08-05T10:32:54.149Z,35.49
2022-08-05T10:33:52.423Z,35.29
2022-08-05T10:36:26.281Z,35.78
2022-08-05T10:39:00.226Z,35.36
2022-08-05T10:41:46.742Z,35.84
2022-08-05T10:44:19.366Z,35.85
2022-08-05T10:46:51.075Z,36.45
2022-08-05T10:49:27.068Z,35.98
2022-08-05T10:52:05.296Z,34.77
2022-08-05T10:54:56.914Z,34.60
2022-08-05T10:57:29.566Z,36.10
2022-08-05T11:00:20.087Z,37.34
2022-08-05T11:03:23.573Z,37.12
2022-08-05T11:06:15.734Z,38.28
2022-08-05T11:09:39.152Z,38.32
2022-08-05T11:12:50.762Z,36.52
2022-08-05T11:16:00.687Z,36.52
2022-08-05T11:18:27.017Z,37.15
2022-08-05T11:20:57.648Z,37.34
2022-08-05T11:24:02.655Z,36.88
2022-08-05T11:26:28.172Z,37.77
2022-08-05T11:29:05.161Z,38.62
2022-08-05T11:31:58.122Z,37.78
2022-08-05T11:34:39.464Z,35.57
2022-08-05T11:38:29.218Z,36.90
2022-08-05T11:40:02.873Z,38.49
2022-08-05T11:42:37.963Z,38.89
2022-08-05T11:45:14.358Z,37.22
2022-08-05T11:47:54.711Z,38.93
2022-08-05T11:50:22.935Z,38.74
2022-08-05T11:52:54.386Z,40.05
2022-08-05T11:55:32.332Z,38.88
2022-08-05T11:58:09.555Z,39.75
2022-08-05T12:00:44.452Z,39.32
2022-08-05T12:03:28.586Z,39.06
2022-08-05T12:06:06.083Z,40.96
2022-08-05T12:08:51.208Z,41.22
2022-08-05T12:11:21.478Z,40.75
2022-08-05T12:13:58.576Z,40.58
2022-08-05T12:16:30.738Z,40.40
2022-08-05T12:18:58.777Z,38.86
2022-08-05T12:21:30.037Z,36.89
2022-08-05T12:24:04.514Z,36.69
2022-08-05T12:26:35.365Z,36.45
2022-08-05T12:29:04.389Z,37.69
2022-08-05T12:31:46.093Z,37.69
2022-08-05T12:34:21.237Z,40.11
2022-08-05T12:36:53.313Z,40.95
2022-08-05T12:39:21.998Z,41.32
2022-08-05T12:41:51.337Z,42.05
2022-08-05T12:44:33.110Z,42.79
2022-08-05T12:47:03.849Z,40.14
2022-08-05T12:50:03.113Z,40.13
2022-08-05T12:52:39.624Z,39.88
2022-08-05T12:55:23.650Z,41.16
2022-08-05T12:58:48.594Z,41.37
2022-08-05T13:02:03.141Z,41.97
2022-08-05T13:03:42.170Z,42.21
2022-08-05T13:06:15.853Z,41.41
2022-08-05T13:08:51.398Z,42.41
2022-08-05T13:11:57.945Z,41.77
2022-08-05T13:14:14.848Z,41.61
2022-08-05T13:16:47.403Z,41.23
2022-08-05T13:19:16.583Z,42.60
2022-08-05T13:21:55.909Z,41.42
2022-08-05T13:24:27.732Z,39.98
2022-08-05T13:27:17.202Z,40.22
2022-08-05T13:30:31.612Z,42.10
2022-08-05T13:32:42.275Z,41.38
2022-08-05T13:35:22.235Z,37.70
2022-08-05T13:38:05.023Z,37.32
2022-08-05T13:40:51.737Z,35.99
2022-08-05T13:43:22.189Z,35.83
2022-08-05T13:45:50.786Z,37.16
2022-08-05T13:48:58.484Z,36.82
2022-08-05T13:51:09.526Z,35.94
2022-08-05T13:53:47.540Z,35.92
2022-08-05T13:56:18.985Z,35.32
2022-08-05T13:58:52.743Z,34.85
2022-08-05T14:01:27.493Z,34.84
2022-08-05T14:04:26.951Z,34.28
2022-08-05T14:06:58.629Z,34.49
2022-08-05T14:09:46.096Z,34.89
2022-08-05T14:12:18.143Z,34.55
2022-08-05T14:15:00.173Z,35.56
2022-08-05T14:17:28.264Z,37.69
2022-08-05T14:20:00.883Z,39.43
2022-08-05T14:22:34.289Z,38.74
2022-08-05T14:25:02.666Z,39.30
2022-08-05T14:27:34.279Z,41.67
2022-08-05T14:30:02.086Z,40.84
2022-08-05T14:32:32.410Z,39.83
2022-08-05T14:35:01.212Z,38.50
2022-08-05T14:37:44.834Z,39.21
2022-08-05T14:40:18.004Z,39.85
2022-08-05T14:42:45.750Z,40.27
2022-08-05T14:45:13.466Z,40.30
2022-08-05T14:48:03.417Z,41.75
2022-08-05T14:50:30.710Z,39.95
2022-08-05T14:52:59.566Z,38.93
2022-08-05T14:55:39.505Z,38.86
2022-08-05T14:58:11.553Z,39.15
2022-08-05T15:00:58.198Z,39.33
2022-08-05T15:03:26.853Z,39.53
2022-08-05T15:06:06.867Z,40.74
2022-08-05T15:08:59.363Z,40.50
2022-08-05T15:11:52.407Z,40.55
2022-08-05T15:14:33.471Z,39.31
2022-08-05T15:17:00.645Z,40.37
2022-08-05T15:19:28.483Z,39.45
2022-08-05T15:22:00.312Z,37.83
2022-08-05T15:24:29.036Z,37.31
2022-08-05T15:26:58.178Z,35.99
2022-08-05T15:29:30.311Z,35.16
2022-08-05T15:32:03.248Z,35.03
2022-08-05T15:34:34.078Z,34.48
2022-08-05T15:37:06.210Z,34.87
2022-08-05T15:41:04.708Z,34.68
2022-08-05T15:42:53.462Z,34.78
2022-08-05T15:45:12.324Z,34.37
2022-08-05T15:47:40.503Z,34.58
2022-08-05T15:50:09.622Z,34.32
2022-08-05T15:52:53.182Z,34.22
2022-08-05T15:55:24.997Z,34.20
2022-08-05T15:58:16.827Z,34.33
2022-08-05T16:00:50.273Z,34.52
2022-08-05T16:03:24.788Z,34.54
2022-08-05T16:05:52.867Z,34.38
2022-08-05T16:08:24.010Z,34.18
2022-08-05T16:10:58.706Z,33.77
2022-08-05T16:13:34.109Z,33.45
2022-08-05T16:16:03.377Z,33.24
2022-08-05T16:18:32.626Z,33.21
2022-08-05T16:21:04.359Z,33.58
2022-08-05T16:23:53.284Z,33.84
2022-08-05T16:26:26.471Z,33.91
2022-08-05T16:28:56.713Z,33.63
2022-08-05T16:31:24.728Z,33.36
2022-08-05T16:33:53.697Z,33.11
2022-08-05T16:36:24.020Z,32.50
2022-08-05T16:38:55.619Z,32.11
2022-08-05T16:42:15.014Z,31.62
2022-08-05T16:44:15.415Z,30.81
2022-08-05T16:46:55.969Z,30.61
2022-08-05T16:49:26.349Z,30.46
2022-08-05T16:51:56.847Z,30.29
2022-08-05T16:54:30.360Z,30.01
2022-08-05T16:57:00.780Z,29.87
2022-08-05T16:59:30.953Z,29.77
2022-08-05T17:01:59.480Z,29.81
2022-08-05T17:04:29.110Z,29.61
2022-08-05T17:07:00.882Z,29.61
2022-08-05T17:09:30.260Z,28.34
2022-08-05T17:11:59.155Z,25.22
2022-08-05T17:14:34.142Z,23.80
2022-08-05T17:17:09.451Z,22.58
2022-08-05T17:19:45.694Z,22.54
2022-08-05T17:22:24.477Z,22.53
2022-08-05T17:24:57.250Z,22.21
2022-08-05T17:27:27.228Z,-138.75
2022-08-05T17:30:02.506Z,-138.75
2022-08-05T17:32:33.843Z,-138.75
2022-08-05T17:35:02.556Z,-138.75
2022-08-05T17:37:40.209Z,-138.75
2022-08-05T17:40:12.558Z,-138.75
2022-08-05T17:42:41.766Z,-138.75
2022-08-05T17:45:38.975Z,20.20
2022-08-05T17:48:08.019Z,20.61
2022-08-05T17:50:35.955Z,20.21
2022-08-05T17:53:05.143Z,20.16
2022-08-05T17:55:37.825Z,20.29
2022-08-05T17:58:12.850Z,20.13
2022-08-05T18:00:45.366Z,20.22
2022-08-05T18:06:11.671Z,20.20
2022-08-05T18:08:44.699Z,20.24
2022-08-05T18:11:24.234Z,20.79
2022-08-05T18:14:03.310Z,20.96
2022-08-05T18:16:33.608Z,21.02
2022-08-05T18:19:01.374Z,21.04
2022-08-05T18:22:09.438Z,21.03
2022-08-05T18:24:16.905Z,21.06
2022-08-05T18:26:44.686Z,20.82
2022-08-05T18:29:16.733Z,20.90
2022-08-05T18:31:46.171Z,21.08
2022-08-05T18:34:17.488Z,20.87
2022-08-05T18:36:49.552Z,20.67
2022-08-05T18:39:42.423Z,20.69
2022-08-05T18:42:10.946Z,20.69
2022-08-05T18:44:49.384Z,21.03
2022-08-05T18:47:26.734Z,20.60
2022-08-05T18:50:13.298Z,20.60
2022-08-05T18:52:50.455Z,20.63
2022-08-05T18:55:20.267Z,20.59
2022-08-05T18:57:53.492Z,20.81
2022-08-05T19:00:29.098Z,20.96
2022-08-05T19:03:04.185Z,20.50
2022-08-05T19:06:12.178Z,20.84
2022-08-05T19:08:30.826Z,20.92
2022-08-05T19:11:04.614Z,20.67
2022-08-05T19:13:35.977Z,20.72
2022-08-05T19:16:05.767Z,20.89
2022-08-05T19:18:56.760Z,20.85
2022-08-05T19:21:27.676Z,20.62
2022-08-05T19:24:07.299Z,20.49
2022-08-05T19:26:43.800Z,20.39
2022-08-05T19:29:24.289Z,20.46
2022-08-05T19:32:03.419Z,20.51
2022-08-05T19:34:33.658Z,20.88
2022-08-05T19:37:01.460Z,20.72
2022-08-05T19:39:30.497Z,20.59
2022-08-05T19:42:08.102Z,20.52
2022-08-05T19:44:44.869Z,20.65
2022-08-05T19:47:15.278Z,20.57
2022-08-05T19:49:46.098Z,20.62
2022-08-05T19:52:40.556Z,20.31
2022-08-05T19:55:06.863Z,20.23
2022-08-05T19:57:47.295Z,20.10
2022-08-05T20:00:23.511Z,20.16
2022-08-05T20:02:52.271Z,20.46
2022-08-05T20:05:24.529Z,20.54
2022-08-05T20:07:57.714Z,20.59
2022-08-05T20:10:27.132Z,20.43
2022-08-05T20:12:55.109Z,19.99
2022-08-05T20:15:52.253Z,19.97
2022-08-05T20:18:32.606Z,20.34
2022-08-05T20:21:00.412Z,20.44
2022-08-05T20:23:39.654Z,20.47
2022-08-05T20:26:17.291Z,20.29
2022-08-05T20:28:47.943Z,20.61
2022-08-05T20:31:16.638Z,20.72
2022-08-05T20:33:45.343Z,20.62
2022-08-05T20:36:16.370Z,20.77
2022-08-05T20:38:53.274Z,20.63
2022-08-05T20:41:26.667Z,20.78
2022-08-05T20:43:58.744Z,20.83
2022-08-05T20:46:29.946Z,20.64
2022-08-05T20:48:57.934Z,20.37
2022-08-05T20:51:27.641Z,20.38
2022-08-05T20:53:56.648Z,20.57
2022-08-05T20:56:29.787Z,20.55
2022-08-05T20:59:04.137Z,20.31
2022-08-05T21:01:42.414Z,20.43
2022-08-05T21:04:10.918Z,20.54
2022-08-05T21:06:45.921Z,20.16
2022-08-05T21:09:14.751Z,19.86
2022-08-05T21:12:09.615Z,19.76
2022-08-05T21:14:31.436Z,19.91
2022-08-05T21:17:05.497Z,19.87
2022-08-05T21:19:46.790Z,20.15
2022-08-05T21:22:21.775Z,20.33
2022-08-05T21:24:52.598Z,20.42
2022-08-05T21:27:25.391Z,20.35
2022-08-05T21:29:56.222Z,20.21
2022-08-05T21:32:27.116Z,20.10
2022-08-05T21:35:17.346Z,20.05
2022-08-05T21:37:49.671Z,20.17
2022-08-05T21:40:21.172Z,20.15
2022-08-05T21:42:49.041Z,20.29
2022-08-05T21:45:51.479Z,20.15
2022-08-05T21:48:08.033Z,20.04
2022-08-05T21:50:36.772Z,20.35
2022-08-05T21:53:16.101Z,20.21
2022-08-05T21:56:04.882Z,20.25
2022-08-05T21:58:32.533Z,20.28
2022-08-05T22:01:01.394Z,20.25
2022-08-05T22:03:51.735Z,20.26
2022-08-05T22:06:23.019Z,20.24
2022-08-05T22:09:15.122Z,20.35
2022-08-05T22:11:43.545Z,20.24
2022-08-05T22:14:34.667Z,20.30
2022-08-05T22:17:06.925Z,20.25
2022-08-05T22:20:01.441Z,20.65
2022-08-05T22:22:27.389Z,20.41
2022-08-05T22:25:21.292Z,20.22
2022-08-05T22:28:08.276Z,20.37
2022-08-05T22:30:43.969Z,20.20
2022-08-05T22:33:57.348Z,20.04
2022-08-05T22:36:14.246Z,19.98
2022-08-05T22:38:42.844Z,19.94
2022-08-05T22:41:12.199Z,19.89
2022-08-05T22:43:42.829Z,19.98
2022-08-05T22:46:13.615Z,20.03
2022-08-05T22:48:51.254Z,19.84
2022-08-05T22:51:22.652Z,19.80
2022-08-05T22:53:51.950Z,19.68
2022-08-05T22:56:30.742Z,19.87
2022-08-05T22:59:00.072Z,19.92
2022-08-05T23:01:50.866Z,19.67
2022-08-05T23:04:21.188Z,19.80
2022-08-05T23:06:48.891Z,19.70
2022-08-05T23:09:52.590Z,19.93
2022-08-05T23:12:06.616Z,19.83
2022-08-05T23:14:34.583Z,19.67
2022-08-05T23:17:24.615Z,19.28
2022-08-05T23:20:02.371Z,19.75
2022-08-05T23:22:30.884Z,19.79
2022-08-05T23:24:58.889Z,19.92
2022-08-05T23:27:42.280Z,19.88
2022-08-05T23:30:16.796Z,19.69
2022-08-05T23:32:45.129Z,19.82
2022-08-05T23:35:13.207Z,20.05
2022-08-05T23:37:41.333Z,19.87
2022-08-05T23:40:11.894Z,19.85
2022-08-05T23:42:41.049Z,19.72
2022-08-05T23:45:15.996Z,19.91
2022-08-05T23:47:48.043Z,20.04
2022-08-05T23:50:20.293Z,19.80
2022-08-05T23:52:49.828Z,19.84
2022-08-05T23:55:19.166Z,19.89
2022-08-05T23:57:48.907Z,19.85
